createdAt,value
2023-03-17T00:00:23.738Z,226.67
2023-03-17T00:00:56.459Z,224.00
2023-03-17T00:01:28.083Z,222.67
2023-03-17T00:01:59.765Z,221.33
2023-03-17T00:02:31.587Z,221.00
2023-03-17T00:03:06.779Z,220.00
2023-03-17T00:03:41.875Z,220.00
2023-03-17T00:04:14.057Z,220.00
2023-03-17T00:04:45.910Z,220.00
2023-03-17T00:05:33.276Z,220.00
2023-03-17T00:06:06.327Z,221.00
2023-03-17T00:06:38.995Z,221.00
2023-03-17T00:07:17.187Z,221.00
2023-03-17T00:07:51.014Z,221.67
2023-03-17T00:08:27.312Z,222.33
2023-03-17T00:08:58.970Z,223.00
2023-03-17T00:09:30.616Z,223.00
2023-03-17T00:10:02.306Z,223.00
2023-03-17T00:10:34.030Z,223.00
2023-03-17T00:11:11.572Z,223.00
2023-03-17T00:11:45.039Z,222.00
2023-03-17T00:12:17.854Z,222.00
2023-03-17T00:12:51.665Z,222.00
2023-03-17T00:13:24.005Z,221.67
2023-03-17T00:13:55.716Z,220.33
2023-03-17T00:14:27.368Z,218.67
2023-03-17T00:14:59.024Z,217.33
2023-03-17T00:15:30.697Z,216.33
2023-03-17T00:16:05.312Z,216.00
2023-03-17T00:16:39.827Z,215.00
2023-03-17T00:17:14.211Z,215.00
2023-03-17T00:17:47.590Z,215.00
2023-03-17T00:18:21.078Z,215.00
2023-03-17T00:18:55.464Z,215.00
2023-03-17T00:19:33.717Z,214.67
2023-03-17T00:20:06.809Z,213.33
2023-03-17T00:20:39.488Z,213.00
2023-03-17T00:21:15.022Z,213.00
2023-03-17T00:21:47.172Z,212.00
2023-03-17T00:22:19.842Z,211.33
2023-03-17T00:22:52.089Z,211.00
2023-03-17T00:23:25.464Z,211.33
2023-03-17T00:23:59.509Z,213.33
2023-03-17T00:24:31.249Z,220.33
2023-03-17T00:25:02.965Z,230.67
2023-03-17T00:25:35.081Z,235.67
2023-03-17T00:26:07.133Z,236.00
2023-03-17T00:26:38.886Z,236.00
2023-03-17T00:27:13.989Z,236.33
2023-03-17T00:27:45.688Z,235.00
2023-03-17T00:28:26.187Z,234.33
2023-03-17T00:28:57.903Z,233.00
2023-03-17T00:29:29.735Z,232.00
2023-03-17T00:30:01.409Z,230.67
2023-03-17T00:30:33.059Z,228.00
2023-03-17T00:31:15.022Z,225.00
2023-03-17T00:31:46.851Z,220.00
2023-03-17T00:32:21.296Z,216.67
2023-03-17T00:32:57.601Z,214.33
2023-03-17T00:33:33.373Z,212.67
2023-03-17T00:34:05.971Z,211.67
2023-03-17T00:34:37.913Z,210.67
2023-03-17T00:35:17.935Z,210.00
2023-03-17T00:35:49.891Z,210.00
2023-03-17T00:36:31.599Z,210.00
2023-03-17T00:37:04.298Z,210.00
2023-03-17T00:37:35.941Z,211.00
2023-03-17T00:38:15.091Z,211.00
2023-03-17T00:38:47.231Z,211.00
2023-03-17T00:39:19.387Z,211.00
2023-03-17T00:39:51.533Z,211.00
2023-03-17T00:40:26.705Z,211.00
2023-03-17T00:40:58.732Z,211.00
2023-03-17T00:41:30.646Z,211.00
2023-03-17T00:42:02.574Z,211.00
2023-03-17T00:42:34.208Z,211.00
2023-03-17T00:43:05.986Z,211.00
2023-03-17T00:43:38.172Z,211.00
2023-03-17T00:44:10.107Z,211.00
2023-03-17T00:44:41.756Z,211.00
2023-03-17T00:45:14.436Z,212.00
2023-03-17T00:45:47.040Z,212.00
2023-03-17T00:46:25.156Z,212.00
2023-03-17T00:46:57.781Z,212.00
2023-03-17T00:47:29.497Z,212.00
2023-03-17T00:48:01.877Z,212.00
2023-03-17T00:48:33.573Z,212.00
2023-03-17T00:49:48.317Z,208.67
2023-03-17T00:50:22.986Z,208.00
2023-03-17T00:50:55.240Z,206.33
2023-03-17T00:51:27.095Z,205.33
2023-03-17T00:51:58.801Z,204.00
2023-03-17T00:52:31.026Z,203.33
2023-03-17T00:53:03.644Z,202.33
2023-03-17T00:53:36.044Z,201.00
2023-03-17T00:54:10.488Z,201.00
2023-03-17T00:54:42.432Z,201.00
2023-03-17T00:55:14.496Z,201.67
2023-03-17T00:55:47.838Z,202.00
2023-03-17T00:56:21.318Z,202.00
2023-03-17T00:56:52.989Z,202.00
2023-03-17T00:57:24.733Z,203.00
2023-03-17T00:57:56.557Z,203.00
2023-03-17T00:58:34.271Z,203.00
2023-03-17T00:59:19.462Z,203.00
2023-03-17T00:59:51.406Z,203.00
2023-03-17T01:00:29.544Z,202.00
2023-03-17T01:01:02.318Z,202.00
2023-03-17T01:01:34.074Z,202.00
2023-03-17T01:02:05.944Z,202.00
2023-03-17T01:02:37.654Z,201.00
2023-03-17T01:03:12.636Z,201.00
2023-03-17T01:03:44.683Z,201.00
2023-03-17T01:04:16.558Z,201.00
2023-03-17T01:04:59.539Z,201.00
2023-03-17T01:05:35.567Z,200.33
2023-03-17T01:06:11.066Z,200.00
2023-03-17T01:06:43.376Z,200.00
2023-03-17T01:07:15.477Z,199.67
2023-03-17T01:07:53.000Z,199.00
2023-03-17T01:08:26.058Z,199.00
2023-03-17T01:08:57.972Z,199.33
2023-03-17T01:09:30.904Z,200.00
2023-03-17T01:10:03.341Z,200.33
2023-03-17T01:10:36.144Z,202.00
2023-03-17T01:11:16.180Z,205.33
2023-03-17T01:11:48.732Z,212.00
2023-03-17T01:12:20.708Z,217.00
2023-03-17T01:12:54.429Z,219.67
2023-03-17T01:13:26.381Z,221.00
2023-03-17T01:13:58.909Z,223.00
2023-03-17T01:14:30.716Z,226.33
2023-03-17T01:15:02.402Z,231.00
2023-03-17T01:15:34.419Z,235.00
2023-03-17T01:16:10.202Z,236.00
2023-03-17T01:16:42.508Z,236.33
2023-03-17T01:17:18.288Z,237.00
2023-03-17T01:17:51.321Z,237.00
2023-03-17T01:18:23.971Z,235.33
2023-03-17T01:18:55.804Z,233.33
2023-03-17T01:19:27.526Z,232.00
2023-03-17T01:19:59.461Z,231.67
2023-03-17T01:20:33.659Z,232.00
2023-03-17T01:21:05.580Z,233.00
2023-03-17T01:21:37.260Z,233.67
2023-03-17T01:22:09.817Z,233.00
2023-03-17T01:22:41.988Z,232.33
2023-03-17T01:23:13.726Z,232.00
2023-03-17T01:23:45.431Z,231.00
2023-03-17T01:24:17.093Z,230.67
2023-03-17T01:24:48.752Z,230.00
2023-03-17T01:25:20.385Z,230.00
2023-03-17T01:25:52.035Z,230.00
2023-03-17T01:26:25.992Z,231.33
2023-03-17T01:26:57.741Z,237.67
2023-03-17T01:27:33.658Z,247.00
2023-03-17T01:28:05.801Z,260.33
2023-03-17T01:28:37.833Z,273.00
2023-03-17T01:29:09.703Z,277.67
2023-03-17T01:29:41.364Z,276.00
2023-03-17T01:30:23.952Z,269.33
2023-03-17T01:30:56.791Z,259.00
2023-03-17T01:31:28.713Z,255.00
2023-03-17T01:32:00.457Z,253.67
2023-03-17T01:32:32.818Z,252.33
2023-03-17T01:33:06.660Z,251.33
2023-03-17T01:33:38.671Z,251.00
2023-03-17T01:34:10.325Z,250.67
2023-03-17T01:34:41.986Z,250.00
2023-03-17T01:35:14.403Z,250.33
2023-03-17T01:35:46.138Z,251.00
2023-03-17T01:36:17.924Z,251.00
2023-03-17T01:36:50.217Z,251.00
2023-03-17T01:37:22.198Z,250.67
2023-03-17T01:37:53.877Z,250.00
2023-03-17T01:38:25.637Z,250.00
2023-03-17T01:38:57.333Z,249.00
2023-03-17T01:39:29.005Z,248.67
2023-03-17T01:40:00.679Z,248.00
2023-03-17T01:40:35.893Z,248.00
2023-03-17T01:41:07.672Z,249.33
2023-03-17T01:41:40.250Z,250.67
2023-03-17T01:42:12.263Z,252.33
2023-03-17T01:43:00.383Z,255.00
2023-03-17T01:43:32.613Z,261.00
2023-03-17T01:44:04.673Z,265.33
2023-03-17T01:44:37.164Z,267.00
2023-03-17T01:45:47.507Z,266.67
2023-03-17T01:46:32.647Z,264.00
2023-03-17T01:47:04.375Z,262.67
2023-03-17T01:47:36.191Z,261.67
2023-03-17T01:48:09.168Z,260.00
2023-03-17T01:49:04.665Z,256.33
2023-03-17T01:49:38.813Z,247.00
2023-03-17T01:50:11.155Z,241.00
2023-03-17T01:50:46.736Z,236.67
2023-03-17T01:51:29.853Z,232.00
2023-03-17T01:52:14.350Z,227.00
2023-03-17T01:52:48.077Z,223.00
2023-03-17T01:53:22.502Z,220.67
2023-03-17T01:53:55.585Z,218.00
2023-03-17T01:54:42.076Z,217.00
2023-03-17T01:55:17.724Z,215.33
2023-03-17T01:55:52.792Z,214.67
2023-03-17T01:56:24.774Z,213.33
2023-03-17T01:57:03.849Z,214.00
2023-03-17T01:57:41.339Z,215.67
2023-03-17T01:58:17.089Z,214.00
2023-03-17T01:58:53.250Z,212.00
2023-03-17T01:59:31.741Z,211.33
2023-03-17T02:00:09.251Z,212.00
2023-03-17T02:00:41.095Z,210.33
2023-03-17T02:01:14.213Z,208.67
2023-03-17T02:01:51.458Z,207.33
2023-03-17T02:02:34.660Z,204.67
2023-03-17T02:03:06.333Z,202.67
2023-03-17T02:03:38.989Z,200.33
2023-03-17T02:04:12.013Z,199.67
2023-03-17T02:04:43.729Z,198.00
2023-03-17T02:05:19.949Z,196.67
2023-03-17T02:05:52.653Z,194.67
2023-03-17T02:06:25.696Z,193.67
2023-03-17T02:06:58.953Z,191.67
2023-03-17T02:07:31.440Z,190.33
2023-03-17T02:08:11.238Z,188.33
2023-03-17T02:08:44.184Z,187.00
2023-03-17T02:09:15.896Z,186.00
2023-03-17T02:09:48.190Z,185.00
2023-03-17T02:10:21.882Z,184.33
2023-03-17T02:10:57.295Z,184.67
2023-03-17T02:11:30.586Z,185.00
2023-03-17T02:12:03.958Z,184.33
2023-03-17T02:12:36.450Z,183.00
2023-03-17T02:13:13.058Z,183.00
2023-03-17T02:13:44.808Z,183.00
2023-03-17T02:14:16.592Z,182.33
2023-03-17T02:14:48.274Z,180.67
2023-03-17T02:15:19.952Z,180.00
2023-03-17T02:15:52.981Z,179.67
2023-03-17T02:16:25.064Z,179.00
2023-03-17T02:16:57.433Z,179.00
2023-03-17T02:17:29.499Z,178.67
2023-03-17T02:18:01.176Z,177.67
2023-03-17T02:18:34.190Z,177.00
2023-03-17T02:19:05.920Z,176.00
2023-03-17T02:19:37.615Z,176.00
2023-03-17T02:20:17.615Z,176.00
2023-03-17T02:20:49.212Z,176.00
2023-03-17T02:21:43.810Z,176.00
2023-03-17T02:22:17.759Z,176.00
2023-03-17T02:22:54.840Z,176.67
2023-03-17T02:23:26.625Z,177.00
2023-03-17T02:24:02.596Z,177.67
2023-03-17T02:24:44.316Z,179.00
2023-03-17T02:25:17.531Z,185.67
2023-03-17T02:25:51.825Z,191.00
2023-03-17T02:26:26.088Z,193.67
2023-03-17T02:27:21.319Z,194.67
2023-03-17T02:27:59.982Z,197.00
2023-03-17T02:28:31.790Z,197.67
2023-03-17T02:29:05.356Z,198.00
2023-03-17T02:29:37.894Z,199.00
2023-03-17T02:30:12.241Z,200.33
2023-03-17T02:30:44.873Z,201.67
2023-03-17T02:31:17.504Z,205.00
2023-03-17T02:31:49.708Z,210.00
2023-03-17T02:32:21.404Z,219.00
2023-03-17T02:32:53.122Z,236.67
2023-03-17T02:33:25.339Z,252.00
2023-03-17T02:33:57.062Z,265.33
2023-03-17T02:34:29.535Z,272.33
2023-03-17T02:35:01.777Z,277.67
2023-03-17T02:35:33.462Z,279.67
2023-03-17T02:36:05.315Z,278.67
2023-03-17T02:36:37.666Z,279.33
2023-03-17T02:37:09.738Z,280.00
2023-03-17T02:37:43.660Z,280.67
2023-03-17T02:38:15.380Z,278.67
2023-03-17T02:38:47.517Z,275.33
2023-03-17T02:39:19.297Z,273.00
2023-03-17T02:39:50.937Z,269.00
2023-03-17T02:40:24.352Z,265.67
2023-03-17T02:40:56.051Z,262.33
2023-03-17T02:41:27.740Z,259.00
2023-03-17T02:42:00.062Z,256.67
2023-03-17T02:42:33.378Z,255.67
2023-03-17T02:43:05.742Z,253.33
2023-03-17T02:43:37.463Z,249.67
2023-03-17T02:44:09.365Z,244.67
2023-03-17T02:44:41.193Z,239.00
2023-03-17T02:45:13.668Z,232.00
2023-03-17T02:45:45.368Z,227.33
2023-03-17T02:46:17.104Z,223.67
2023-03-17T02:46:48.791Z,220.67
2023-03-17T02:47:21.668Z,219.00
2023-03-17T02:47:55.226Z,218.00
2023-03-17T02:48:27.342Z,216.33
2023-03-17T02:49:00.715Z,214.67
2023-03-17T02:49:34.033Z,212.67
2023-03-17T02:50:07.510Z,210.00
2023-03-17T02:50:39.237Z,207.33
2023-03-17T02:51:10.982Z,205.67
2023-03-17T02:51:43.288Z,204.33
2023-03-17T02:52:15.018Z,202.67
2023-03-17T02:52:46.661Z,201.33
2023-03-17T02:53:18.337Z,201.67
2023-03-17T02:53:50.236Z,200.33
2023-03-17T02:54:22.168Z,199.67
2023-03-17T02:54:53.953Z,198.00
2023-03-17T02:55:27.139Z,197.00
2023-03-17T02:55:58.826Z,195.67
2023-03-17T02:56:31.473Z,194.00
2023-03-17T02:57:03.405Z,191.33
2023-03-17T02:57:35.124Z,191.00
2023-03-17T02:58:06.848Z,190.33
2023-03-17T02:58:38.565Z,188.67
2023-03-17T02:59:11.123Z,188.00
2023-03-17T02:59:43.290Z,187.00
2023-03-17T03:00:15.481Z,187.33
2023-03-17T03:00:48.851Z,186.67
2023-03-17T03:01:21.307Z,185.33
2023-03-17T03:01:53.085Z,183.67
2023-03-17T03:02:24.779Z,183.00
2023-03-17T03:02:56.906Z,181.00
2023-03-17T03:03:28.665Z,179.00
2023-03-17T03:04:00.333Z,178.33
2023-03-17T03:04:32.735Z,177.67
2023-03-17T03:05:05.607Z,176.67
2023-03-17T03:05:37.603Z,176.33
2023-03-17T03:06:09.399Z,175.67
2023-03-17T03:06:42.576Z,176.00
2023-03-17T03:07:14.297Z,176.00
2023-03-17T03:07:45.941Z,175.33
2023-03-17T03:08:17.709Z,175.67
2023-03-17T03:08:50.558Z,176.00
2023-03-17T03:09:22.356Z,175.00
2023-03-17T03:09:54.010Z,175.00
2023-03-17T03:10:25.907Z,174.67
2023-03-17T03:10:57.613Z,174.00
2023-03-17T03:11:29.533Z,173.67
2023-03-17T03:12:01.165Z,173.00
2023-03-17T03:12:32.897Z,173.00
2023-03-17T03:13:04.670Z,173.00
2023-03-17T03:13:37.194Z,172.00
2023-03-17T03:14:08.855Z,172.00
2023-03-17T03:14:41.016Z,172.00
2023-03-17T03:15:12.745Z,172.00
2023-03-17T03:15:44.475Z,171.33
2023-03-17T03:16:16.659Z,171.00
2023-03-17T03:16:48.771Z,170.33
2023-03-17T03:17:21.119Z,170.00
2023-03-17T03:17:52.812Z,170.00
2023-03-17T03:18:24.817Z,170.00
2023-03-17T03:18:56.554Z,170.00
2023-03-17T03:19:28.371Z,170.33
2023-03-17T03:20:00.178Z,171.00
2023-03-17T03:20:32.458Z,176.33
2023-03-17T03:21:05.026Z,192.00
2023-03-17T03:21:37.193Z,210.00
2023-03-17T03:22:08.923Z,218.00
2023-03-17T03:22:40.715Z,221.00
2023-03-17T03:23:13.082Z,222.33
2023-03-17T03:23:44.769Z,224.33
2023-03-17T03:24:16.572Z,223.00
2023-03-17T03:24:48.262Z,218.00
2023-03-17T03:25:19.994Z,213.33
2023-03-17T03:25:51.722Z,209.67
2023-03-17T03:26:23.592Z,207.33
2023-03-17T03:26:55.226Z,205.00
2023-03-17T03:27:26.857Z,201.67
2023-03-17T03:27:58.613Z,196.33
2023-03-17T03:28:30.786Z,192.00
2023-03-17T03:29:02.520Z,189.00
2023-03-17T03:29:34.478Z,186.00
2023-03-17T03:30:08.277Z,183.00
2023-03-17T03:30:40.038Z,180.00
2023-03-17T03:31:11.919Z,177.00
2023-03-17T03:31:43.643Z,174.00
2023-03-17T03:32:15.338Z,171.33
2023-03-17T03:32:47.784Z,169.33
2023-03-17T03:33:19.714Z,168.67
2023-03-17T03:33:51.663Z,167.33
2023-03-17T03:34:23.348Z,167.00
2023-03-17T03:34:55.055Z,166.33
2023-03-17T03:35:26.782Z,166.00
2023-03-17T03:35:59.426Z,164.33
2023-03-17T03:36:31.181Z,163.67
2023-03-17T03:37:02.867Z,161.67
2023-03-17T03:37:34.667Z,161.00
2023-03-17T03:38:07.663Z,161.00
2023-03-17T03:38:39.565Z,160.67
2023-03-17T03:39:14.207Z,160.33
2023-03-17T03:39:46.499Z,159.33
2023-03-17T03:40:18.249Z,159.00
2023-03-17T03:40:49.983Z,157.67
2023-03-17T03:41:21.903Z,157.00
2023-03-17T03:41:57.339Z,156.67
2023-03-17T03:42:29.007Z,156.00
2023-03-17T03:43:07.525Z,156.00
2023-03-17T03:43:44.673Z,155.67
2023-03-17T03:44:16.357Z,156.00
2023-03-17T03:44:48.017Z,156.67
2023-03-17T03:45:19.730Z,157.00
2023-03-17T03:45:51.761Z,157.67
2023-03-17T03:46:23.564Z,158.00
2023-03-17T03:46:55.282Z,158.33
2023-03-17T03:47:26.953Z,159.00
2023-03-17T03:47:58.771Z,159.33
2023-03-17T03:48:30.468Z,160.00
2023-03-17T03:49:02.181Z,161.00
2023-03-17T03:49:33.903Z,161.67
2023-03-17T03:50:06.805Z,162.00
2023-03-17T03:50:38.818Z,163.00
2023-03-17T03:51:10.558Z,163.33
2023-03-17T03:51:42.212Z,164.33
2023-03-17T03:52:13.902Z,165.33
2023-03-17T03:52:45.553Z,166.67
2023-03-17T03:53:17.256Z,167.67
2023-03-17T03:53:49.030Z,168.67
2023-03-17T03:54:20.805Z,169.33
2023-03-17T03:54:52.836Z,170.00
2023-03-17T03:55:24.545Z,170.67
2023-03-17T03:55:56.984Z,172.33
2023-03-17T03:56:28.667Z,174.33
2023-03-17T03:57:00.565Z,175.67
2023-03-17T03:57:32.227Z,176.67
2023-03-17T03:58:03.922Z,177.00
2023-03-17T03:58:35.725Z,177.00
2023-03-17T03:59:07.631Z,177.00
2023-03-17T03:59:39.437Z,177.00
2023-03-17T04:00:13.943Z,177.00
2023-03-17T04:00:46.725Z,177.00
2023-03-17T04:01:18.852Z,177.00
2023-03-17T04:01:50.593Z,177.00
2023-03-17T04:02:22.301Z,177.00
2023-03-17T04:02:54.114Z,177.00
2023-03-17T04:03:25.914Z,177.00
2023-03-17T04:03:57.562Z,177.00
2023-03-17T04:04:29.819Z,177.00
2023-03-17T04:05:01.930Z,176.33
2023-03-17T04:05:33.728Z,176.00
2023-03-17T04:06:06.284Z,176.00
2023-03-17T04:06:37.952Z,175.67
2023-03-17T04:07:10.036Z,175.00
2023-03-17T04:07:43.211Z,174.00
2023-03-17T04:08:14.902Z,173.00
2023-03-17T04:08:46.579Z,172.67
2023-03-17T04:09:18.242Z,172.00
2023-03-17T04:09:49.940Z,171.00
2023-03-17T04:10:21.744Z,171.00
2023-03-17T04:10:53.409Z,171.00
2023-03-17T04:11:25.248Z,171.00
2023-03-17T04:11:56.905Z,171.00
2023-03-17T04:12:28.564Z,171.00
2023-03-17T04:13:00.689Z,171.00
2023-03-17T04:13:32.343Z,171.00
2023-03-17T04:14:04.238Z,170.33
2023-03-17T04:14:36.481Z,170.00
2023-03-17T04:15:09.462Z,170.00
2023-03-17T04:15:41.493Z,169.00
2023-03-17T04:16:13.191Z,169.00
2023-03-17T04:16:44.829Z,168.67
2023-03-17T04:17:16.926Z,168.00
2023-03-17T04:17:48.839Z,167.33
2023-03-17T04:18:20.509Z,167.00
2023-03-17T04:18:52.253Z,166.00
2023-03-17T04:19:24.032Z,165.67
2023-03-17T04:19:56.068Z,165.00
2023-03-17T04:20:27.831Z,164.33
2023-03-17T04:20:59.825Z,163.67
2023-03-17T04:21:31.978Z,163.00
2023-03-17T04:22:04.463Z,163.00
2023-03-17T04:22:36.184Z,163.00
2023-03-17T04:23:07.988Z,163.00
2023-03-17T04:23:39.700Z,163.00
2023-03-17T04:24:11.344Z,163.00
2023-03-17T04:24:42.999Z,164.00
2023-03-17T04:25:15.661Z,164.00
2023-03-17T04:25:47.572Z,164.00
2023-03-17T04:26:19.509Z,164.00
2023-03-17T04:26:51.988Z,164.00
2023-03-17T04:27:24.041Z,164.00
2023-03-17T04:27:55.705Z,164.00
2023-03-17T04:28:27.427Z,164.00
2023-03-17T04:28:59.072Z,164.00
2023-03-17T04:29:32.023Z,163.00
2023-03-17T04:30:04.632Z,162.33
2023-03-17T04:30:36.643Z,162.00
2023-03-17T04:31:12.384Z,162.00
2023-03-17T04:31:44.199Z,162.67
2023-03-17T04:32:15.981Z,163.33
2023-03-17T04:32:47.727Z,164.33
2023-03-17T04:33:20.329Z,166.67
2023-03-17T04:33:52.226Z,168.67
2023-03-17T04:34:24.193Z,169.67
2023-03-17T04:34:56.086Z,170.00
2023-03-17T04:35:28.031Z,170.00
2023-03-17T04:35:59.771Z,171.00
2023-03-17T04:36:31.472Z,173.33
2023-03-17T04:37:03.157Z,177.67
2023-03-17T04:37:34.814Z,181.67
2023-03-17T04:38:06.907Z,184.67
2023-03-17T04:38:38.525Z,186.67
2023-03-17T04:39:10.982Z,188.33
2023-03-17T04:39:42.658Z,192.00
2023-03-17T04:40:15.850Z,195.67
2023-03-17T04:40:47.548Z,197.00
2023-03-17T04:41:19.811Z,196.33
2023-03-17T04:41:51.698Z,196.00
2023-03-17T04:42:23.432Z,195.33
2023-03-17T04:42:55.097Z,193.67
2023-03-17T04:43:27.180Z,192.33
2023-03-17T04:43:58.822Z,191.67
2023-03-17T04:44:30.936Z,190.67
2023-03-17T04:45:06.846Z,190.00
2023-03-17T04:45:38.905Z,190.00
2023-03-17T04:46:11.029Z,189.00
2023-03-17T04:46:42.753Z,189.00
2023-03-17T04:47:14.441Z,188.33
2023-03-17T04:47:46.469Z,187.67
2023-03-17T04:48:18.117Z,186.67
2023-03-17T04:48:49.783Z,185.33
2023-03-17T04:49:21.887Z,183.67
2023-03-17T04:49:54.051Z,182.33
2023-03-17T04:50:26.565Z,180.00
2023-03-17T04:50:58.662Z,179.00
2023-03-17T04:51:30.604Z,177.67
2023-03-17T04:52:02.539Z,176.33
2023-03-17T04:52:34.583Z,174.67
2023-03-17T04:53:06.827Z,173.67
2023-03-17T04:53:38.536Z,172.33
2023-03-17T04:54:11.330Z,171.00
2023-03-17T04:54:43.177Z,168.00
2023-03-17T04:55:14.956Z,165.33
2023-03-17T04:55:47.149Z,163.33
2023-03-17T04:56:19.105Z,161.67
2023-03-17T04:56:50.863Z,159.67
2023-03-17T04:57:24.268Z,158.33
2023-03-17T04:57:56.023Z,157.00
2023-03-17T04:58:30.831Z,156.00
2023-03-17T04:59:03.471Z,156.67
2023-03-17T04:59:35.374Z,157.00
2023-03-17T05:00:08.502Z,156.33
2023-03-17T05:00:40.459Z,156.00
2023-03-17T05:01:12.239Z,156.00
2023-03-17T05:01:44.278Z,155.33
2023-03-17T05:02:16.022Z,154.33
2023-03-17T05:02:47.749Z,154.00
2023-03-17T05:03:26.395Z,153.00
2023-03-17T05:03:59.144Z,152.33
2023-03-17T05:04:32.224Z,151.00
2023-03-17T05:05:04.648Z,149.67
2023-03-17T05:05:36.703Z,149.00
2023-03-17T05:06:08.582Z,148.00
2023-03-17T05:06:40.702Z,147.00
2023-03-17T05:07:13.437Z,146.67
2023-03-17T05:07:45.086Z,146.00
2023-03-17T05:08:17.218Z,146.00
2023-03-17T05:08:48.917Z,145.00
2023-03-17T05:09:20.925Z,145.00
2023-03-17T05:09:52.598Z,145.00
2023-03-17T05:10:24.483Z,145.00
2023-03-17T05:10:57.614Z,145.00
2023-03-17T05:11:29.401Z,145.00
2023-03-17T05:12:01.093Z,145.00
2023-03-17T05:12:32.787Z,145.00
2023-03-17T05:13:04.425Z,144.67
2023-03-17T05:13:36.094Z,145.00
2023-03-17T05:14:07.745Z,144.00
2023-03-17T05:14:39.530Z,144.00
2023-03-17T05:15:11.429Z,144.00
2023-03-17T05:15:51.763Z,144.00
2023-03-17T05:16:23.553Z,144.00
2023-03-17T05:16:55.392Z,144.00
2023-03-17T05:17:27.094Z,143.33
2023-03-17T05:17:58.793Z,143.00
2023-03-17T05:18:30.641Z,143.00
2023-03-17T05:19:02.370Z,143.00
2023-03-17T05:19:34.187Z,143.00
2023-03-17T05:20:06.376Z,143.00
2023-03-17T05:20:38.069Z,143.00
2023-03-17T05:21:10.331Z,143.00
2023-03-17T05:21:42.705Z,143.67
2023-03-17T05:22:14.365Z,144.00
2023-03-17T05:22:46.589Z,144.00
2023-03-17T05:23:18.282Z,144.00
2023-03-17T05:23:50.338Z,144.00
2023-03-17T05:24:22.078Z,144.00
2023-03-17T05:24:53.788Z,144.00
2023-03-17T05:25:25.678Z,144.00
2023-03-17T05:25:57.406Z,144.00
2023-03-17T05:26:29.507Z,144.00
2023-03-17T05:27:01.160Z,144.00
2023-03-17T05:27:33.329Z,144.00
2023-03-17T05:28:05.058Z,144.00
2023-03-17T05:28:37.006Z,144.00
2023-03-17T05:29:09.072Z,144.33
2023-03-17T05:29:40.711Z,145.00
2023-03-17T05:30:12.807Z,147.00
2023-03-17T05:30:44.553Z,149.00
2023-03-17T05:31:16.349Z,151.67
2023-03-17T05:31:48.533Z,152.67
2023-03-17T05:32:21.007Z,153.67
2023-03-17T05:32:52.688Z,156.33
2023-03-17T05:33:25.153Z,162.33
2023-03-17T05:33:57.304Z,169.00
2023-03-17T05:34:28.943Z,175.00
2023-03-17T05:35:01.253Z,178.33
2023-03-17T05:35:32.997Z,177.33
2023-03-17T05:36:05.269Z,177.00
2023-03-17T05:36:37.571Z,176.33
2023-03-17T05:37:10.325Z,175.33
2023-03-17T05:37:41.946Z,174.67
2023-03-17T05:38:15.920Z,173.33
2023-03-17T05:38:47.632Z,173.33
2023-03-17T05:39:19.345Z,173.00
2023-03-17T05:39:52.677Z,174.00
2023-03-17T05:40:24.367Z,178.67
2023-03-17T05:40:56.112Z,181.67
2023-03-17T05:41:28.130Z,184.00
2023-03-17T05:41:59.804Z,189.67
2023-03-17T05:42:31.684Z,203.33
2023-03-17T05:43:04.348Z,221.67
2023-03-17T05:43:36.447Z,220.67
2023-03-17T05:44:08.836Z,214.33
2023-03-17T05:44:40.511Z,210.33
2023-03-17T05:45:12.366Z,216.33
2023-03-17T05:45:44.075Z,224.00
2023-03-17T05:46:16.427Z,227.67
2023-03-17T05:46:49.003Z,234.67
2023-03-17T05:47:20.977Z,315.33
2023-03-17T05:47:52.945Z,334.67
2023-03-17T05:48:24.647Z,301.33
2023-03-17T05:48:56.499Z,268.67
2023-03-17T05:49:28.518Z,246.67
2023-03-17T05:50:04.868Z,237.67
2023-03-17T05:50:36.619Z,234.00
2023-03-17T05:51:08.426Z,231.67
2023-03-17T05:51:41.909Z,231.00
2023-03-17T05:52:14.135Z,229.67
2023-03-17T05:52:45.855Z,228.33
2023-03-17T05:53:17.558Z,227.00
2023-03-17T05:53:49.239Z,226.00
2023-03-17T05:54:21.645Z,226.00
2023-03-17T05:54:54.570Z,225.33
2023-03-17T05:55:26.575Z,225.00
2023-03-17T05:55:58.211Z,223.67
2023-03-17T05:56:33.615Z,220.67
2023-03-17T05:57:05.445Z,213.00
2023-03-17T05:57:37.480Z,205.33
2023-03-17T05:58:09.620Z,201.00
2023-03-17T05:58:41.657Z,199.00
2023-03-17T05:59:15.644Z,197.00
2023-03-17T05:59:48.398Z,196.00
2023-03-17T06:00:21.590Z,196.00
2023-03-17T06:00:53.395Z,195.33
2023-03-17T06:01:25.109Z,195.33
2023-03-17T06:01:57.254Z,196.00
2023-03-17T06:02:29.457Z,195.33
2023-03-17T06:03:02.368Z,194.33
2023-03-17T06:03:34.489Z,195.00
2023-03-17T06:04:06.678Z,195.00
2023-03-17T06:04:39.009Z,195.00
2023-03-17T06:05:10.741Z,195.33
2023-03-17T06:05:42.510Z,196.00
2023-03-17T06:06:14.207Z,195.33
2023-03-17T06:06:46.345Z,194.67
2023-03-17T06:07:18.062Z,194.00
2023-03-17T06:07:54.970Z,193.00
2023-03-17T06:08:27.947Z,192.00
2023-03-17T06:09:00.189Z,191.00
2023-03-17T06:09:32.519Z,191.00
2023-03-17T06:10:05.274Z,190.33
2023-03-17T06:10:36.971Z,190.00
2023-03-17T06:11:08.610Z,190.00
2023-03-17T06:11:40.244Z,190.00
2023-03-17T06:12:11.913Z,189.67
2023-03-17T06:12:43.554Z,189.00
2023-03-17T06:13:15.890Z,188.67
2023-03-17T06:13:48.607Z,188.00
2023-03-17T06:14:20.492Z,187.33
2023-03-17T06:14:52.195Z,186.67
2023-03-17T06:15:23.912Z,186.00
2023-03-17T06:15:57.005Z,186.00
2023-03-17T06:16:30.805Z,185.67
2023-03-17T06:17:02.755Z,185.00
2023-03-17T06:17:34.504Z,185.00
2023-03-17T06:18:06.224Z,184.67
2023-03-17T06:18:37.935Z,184.00
2023-03-17T06:19:09.606Z,184.00
2023-03-17T06:19:41.803Z,184.00
2023-03-17T06:20:14.317Z,184.00
2023-03-17T06:20:45.990Z,184.00
2023-03-17T06:21:17.675Z,184.00
2023-03-17T06:21:49.527Z,184.33
2023-03-17T06:22:21.223Z,185.00
2023-03-17T06:23:03.832Z,185.67
2023-03-17T06:23:36.909Z,190.33
2023-03-17T06:24:09.714Z,198.00
2023-03-17T06:24:41.365Z,200.67
2023-03-17T06:25:13.737Z,201.33
2023-03-17T06:25:45.423Z,201.67
2023-03-17T06:26:17.374Z,201.00
2023-03-17T06:26:49.074Z,201.00
2023-03-17T06:27:20.873Z,200.00
2023-03-17T06:27:54.810Z,200.00
2023-03-17T06:28:26.485Z,199.33
2023-03-17T06:28:58.149Z,199.00
2023-03-17T06:29:30.127Z,199.00
2023-03-17T06:30:01.777Z,198.67
2023-03-17T06:30:34.813Z,198.00
2023-03-17T06:31:07.453Z,198.00
2023-03-17T06:31:40.548Z,198.00
2023-03-17T06:32:20.455Z,198.00
2023-03-17T06:32:52.641Z,201.00
2023-03-17T06:33:25.155Z,207.33
2023-03-17T06:33:57.558Z,211.00
2023-03-17T06:34:29.506Z,214.00
2023-03-17T06:35:01.960Z,216.67
2023-03-17T06:35:34.415Z,217.00
2023-03-17T06:36:06.554Z,218.33
2023-03-17T06:36:39.269Z,226.67
2023-03-17T06:37:10.916Z,281.67
2023-03-17T06:37:42.663Z,299.33
2023-03-17T06:38:14.322Z,273.33
2023-03-17T06:38:46.289Z,254.67
2023-03-17T06:39:21.143Z,246.67
2023-03-17T06:39:52.942Z,247.67
2023-03-17T06:40:24.609Z,252.33
2023-03-17T06:40:56.333Z,260.67
2023-03-17T06:41:28.459Z,266.00
2023-03-17T06:42:00.206Z,264.67
2023-03-17T06:42:31.885Z,260.00
2023-03-17T06:43:03.559Z,257.67
2023-03-17T06:43:36.258Z,258.67
2023-03-17T06:44:08.613Z,258.33
2023-03-17T06:44:40.764Z,257.00
2023-03-17T06:45:12.990Z,256.00
2023-03-17T06:45:44.639Z,255.67
2023-03-17T06:46:16.639Z,255.33
2023-03-17T06:46:49.218Z,255.00
2023-03-17T06:47:20.944Z,254.33
2023-03-17T06:47:53.012Z,254.00
2023-03-17T06:48:24.744Z,253.33
2023-03-17T06:48:56.419Z,253.00
2023-03-17T06:49:28.633Z,252.33
2023-03-17T06:50:00.297Z,252.00
2023-03-17T06:50:32.063Z,251.00
2023-03-17T06:51:04.290Z,251.00